createdAt,value
2018-04-19T00:03:58.031Z,0.00
2018-04-19T00:04:45.244Z,0.00
2018-04-19T00:05:45.275Z,0.00
2018-04-19T00:06:45.289Z,0.00
2018-04-19T00:07:45.316Z,0.00
2018-04-19T00:08:45.334Z,0.00
2018-04-19T00:09:45.359Z,0.00
2018-04-19T00:10:45.385Z,0.00
2018-04-19T00:11:45.400Z,0.00
2018-04-19T00:12:45.423Z,0.00
2018-04-19T00:13:45.449Z,0.00
2018-04-19T00:14:45.470Z,0.00
2018-04-19T00:15:45.496Z,0.00
2018-04-19T00:16:45.513Z,0.00
2018-04-19T00:17:45.539Z,0.00
2018-04-19T00:18:45.562Z,0.00
2018-04-19T00:19:45.575Z,0.00
2018-04-19T00:20:45.652Z,0.00
2018-04-19T00:21:45.626Z,0.00
2018-04-19T00:22:45.647Z,0.00
2018-04-19T00:23:45.668Z,0.00
2018-04-19T00:24:45.687Z,0.00
2018-04-19T00:25:45.716Z,0.00
2018-04-19T00:26:45.730Z,0.00
2018-04-19T00:27:45.761Z,0.00
2018-04-19T00:28:45.775Z,0.00
2018-04-19T00:29:45.799Z,0.00
2018-04-19T00:30:45.820Z,0.00
2018-04-19T00:31:45.840Z,0.00
2018-04-19T00:32:45.866Z,0.00
2018-04-19T00:33:45.891Z,0.00
2018-04-19T00:34:45.907Z,0.00
2018-04-19T00:35:45.941Z,0.00
2018-04-19T00:36:45.957Z,0.00
2018-04-19T00:37:45.977Z,0.00
2018-04-19T00:38:45.999Z,0.00
2018-04-19T00:39:46.024Z,0.00
2018-04-19T00:40:46.048Z,0.00
2018-04-19T00:41:46.064Z,0.00
2018-04-19T00:42:46.091Z,0.00
2018-04-19T00:43:46.109Z,0.00
2018-04-19T00:44:46.132Z,0.00
2018-04-19T00:45:46.151Z,0.00
2018-04-19T00:46:46.177Z,0.00
2018-04-19T00:47:46.204Z,0.00
2018-04-19T00:48:46.217Z,0.00
2018-04-19T00:49:46.248Z,0.00
2018-04-19T00:50:46.263Z,0.00
2018-04-19T00:51:46.288Z,0.00
2018-04-19T00:52:46.307Z,0.00
2018-04-19T00:53:46.331Z,0.00
2018-04-19T00:54:46.347Z,0.00
2018-04-19T00:55:46.380Z,0.00
2018-04-19T00:56:46.393Z,0.00
2018-04-19T00:57:46.423Z,0.00
2018-04-19T00:58:46.436Z,0.00
2018-04-19T00:59:46.469Z,0.00
2018-04-19T01:00:46.480Z,0.00
2018-04-19T01:01:46.506Z,0.00
2018-04-19T01:02:46.528Z,0.00
2018-04-19T01:03:46.547Z,0.00
2018-04-19T01:04:46.570Z,0.00
2018-04-19T01:05:46.596Z,0.00
2018-04-19T01:06:46.616Z,0.00
2018-04-19T01:07:46.636Z,0.00
2018-04-19T01:08:46.661Z,0.00
2018-04-19T01:09:46.681Z,0.00
2018-04-19T01:10:46.708Z,0.00
2018-04-19T01:11:46.722Z,0.00
2018-04-19T01:12:46.751Z,0.00
2018-04-19T01:13:46.765Z,0.00
2018-04-19T01:14:46.796Z,0.00
2018-04-19T01:15:46.813Z,0.00
2018-04-19T01:16:46.841Z,0.00
2018-04-19T01:17:46.859Z,0.00
2018-04-19T01:18:46.874Z,0.00
2018-04-19T01:19:46.905Z,0.00
2018-04-19T01:20:46.928Z,0.00
2018-04-19T01:21:46.948Z,0.00
2018-04-19T01:22:46.964Z,0.00
2018-04-19T01:23:46.989Z,0.00
2018-04-19T01:24:47.009Z,0.00
2018-04-19T01:25:47.034Z,0.00
2018-04-19T01:26:47.050Z,0.00
2018-04-19T01:27:47.079Z,0.00
2018-04-19T01:28:47.093Z,0.00
2018-04-19T01:29:47.124Z,0.00
2018-04-19T01:30:47.136Z,0.00
2018-04-19T01:31:47.166Z,0.00
2018-04-19T01:32:47.187Z,0.00
2018-04-19T01:33:47.205Z,0.00
2018-04-19T01:34:47.227Z,0.00
2018-04-19T01:35:47.245Z,0.00
2018-04-19T01:36:47.271Z,0.00
2018-04-19T01:37:47.289Z,0.00
2018-04-19T01:38:47.319Z,0.00
2018-04-19T01:39:47.335Z,0.00
2018-04-19T01:40:47.355Z,0.00
2018-04-19T01:41:47.386Z,0.00
2018-04-19T01:42:47.406Z,0.00
2018-04-19T01:43:47.419Z,0.00
2018-04-19T01:44:47.447Z,0.00
2018-04-19T01:45:47.468Z,0.00
2018-04-19T01:46:47.492Z,0.00
2018-04-19T01:47:47.506Z,0.00
2018-04-19T01:48:47.531Z,0.00
2018-04-19T01:49:47.551Z,0.00
2018-04-19T01:50:47.576Z,0.00
2018-04-19T01:51:47.601Z,0.00
2018-04-19T01:52:47.615Z,0.00
2018-04-19T01:53:47.645Z,0.00
2018-04-19T01:54:47.662Z,0.00
2018-04-19T01:55:47.685Z,0.00
2018-04-19T01:56:47.705Z,0.00
2018-04-19T01:57:47.730Z,0.00
2018-04-19T01:58:47.745Z,0.00
2018-04-19T01:59:47.779Z,0.00
2018-04-19T02:00:47.789Z,0.00
2018-04-19T02:01:47.819Z,0.00
2018-04-19T02:02:47.832Z,0.00
2018-04-19T02:03:47.861Z,0.00
2018-04-19T02:04:47.876Z,0.00
2018-04-19T02:05:47.901Z,0.00
2018-04-19T02:06:47.921Z,0.00
2018-04-19T02:07:47.943Z,0.00
2018-04-19T02:08:47.965Z,0.00
2018-04-19T02:09:47.989Z,0.00
2018-04-19T02:10:48.005Z,0.00
2018-04-19T02:11:48.034Z,0.00
2018-04-19T02:12:48.052Z,0.00
2018-04-19T02:13:48.079Z,0.00
2018-04-19T02:14:48.099Z,0.00
2018-04-19T02:15:48.113Z,0.00
2018-04-19T02:16:48.141Z,0.00
2018-04-19T02:17:48.183Z,0.00
2018-04-19T02:18:48.186Z,0.00
2018-04-19T02:19:48.199Z,0.00
2018-04-19T02:20:48.222Z,0.00
2018-04-19T02:21:48.252Z,0.00
2018-04-19T02:22:48.266Z,0.00
2018-04-19T02:23:48.293Z,0.00
2018-04-19T02:24:48.308Z,0.00
2018-04-19T02:25:48.336Z,0.00
2018-04-19T02:26:48.351Z,0.00
2018-04-19T02:27:48.375Z,0.00
2018-04-19T02:28:48.400Z,0.00
2018-04-19T02:29:48.414Z,0.00
2018-04-19T02:30:48.439Z,0.00
2018-04-19T02:31:48.460Z,0.00
2018-04-19T02:32:48.478Z,0.00
2018-04-19T02:33:48.508Z,0.00
2018-04-19T02:34:48.520Z,0.00
2018-04-19T02:35:48.554Z,0.00
2018-04-19T02:36:48.564Z,0.00
2018-04-19T02:37:48.594Z,0.00
2018-04-19T02:38:48.613Z,0.00
2018-04-19T02:39:48.627Z,0.00
2018-04-19T02:40:48.653Z,0.00
2018-04-19T02:41:48.678Z,0.00
2018-04-19T02:42:48.692Z,0.00
2018-04-19T02:43:48.724Z,0.00
2018-04-19T02:44:48.745Z,0.00
2018-04-19T02:45:48.763Z,0.00
2018-04-19T02:46:48.779Z,0.00
2018-04-19T02:47:48.805Z,0.00
2018-04-19T02:48:48.832Z,0.00
2018-04-19T02:49:48.843Z,0.00
2018-04-19T02:50:48.870Z,0.00
2018-04-19T02:51:48.884Z,0.00
2018-04-19T02:52:48.908Z,0.00
2018-04-19T02:53:48.935Z,0.00
2018-04-19T02:54:48.953Z,0.00
2018-04-19T02:55:48.979Z,0.00
2018-04-19T02:56:48.991Z,0.00
2018-04-19T02:57:49.020Z,0.00
2018-04-19T02:58:49.041Z,0.00
2018-04-19T02:59:49.055Z,0.00
2018-04-19T03:00:49.080Z,0.00
2018-04-19T03:01:49.104Z,0.00
2018-04-19T03:02:49.125Z,0.00
2018-04-19T03:03:49.142Z,0.00
2018-04-19T03:04:49.162Z,0.00
2018-04-19T03:05:49.191Z,0.00
2018-04-19T03:06:49.217Z,0.00
2018-04-19T03:07:49.232Z,0.00
2018-04-19T03:08:49.247Z,0.00
2018-04-19T03:09:49.277Z,0.00
2018-04-19T03:10:49.291Z,0.00
2018-04-19T03:11:49.320Z,0.00
2018-04-19T03:12:49.334Z,0.00
2018-04-19T03:13:49.362Z,0.00
2018-04-19T03:14:49.382Z,0.00
2018-04-19T03:15:49.397Z,0.00
2018-04-19T03:16:49.422Z,0.00
2018-04-19T03:17:49.440Z,0.00
2018-04-19T03:18:49.462Z,0.00
2018-04-19T03:19:49.485Z,0.00
2018-04-19T03:20:49.504Z,0.00
2018-04-19T03:21:49.528Z,0.00
2018-04-19T03:22:49.552Z,0.00
2018-04-19T03:23:49.572Z,0.00
2018-04-19T03:24:49.592Z,0.00
2018-04-19T03:25:49.613Z,0.00
2018-04-19T03:26:49.629Z,0.00
2018-04-19T03:27:49.658Z,0.00
2018-04-19T03:28:49.672Z,0.00
2018-04-19T03:29:49.702Z,0.00
2018-04-19T03:30:49.718Z,0.00
2018-04-19T03:31:49.741Z,0.00
2018-04-19T03:32:49.766Z,0.00
2018-04-19T03:33:49.778Z,0.00
2018-04-19T03:34:49.804Z,0.00
2018-04-19T03:35:49.822Z,0.00
2018-04-19T03:36:49.844Z,0.00
2018-04-19T03:37:49.871Z,0.00
2018-04-19T03:38:49.884Z,0.00
2018-04-19T03:39:49.912Z,0.00
2018-04-19T03:40:49.989Z,0.00
2018-04-19T03:41:49.961Z,0.00
2018-04-19T03:42:49.977Z,0.00
2018-04-19T03:43:49.990Z,0.00
2018-04-19T03:44:50.015Z,0.00
2018-04-19T03:45:50.038Z,0.00
2018-04-19T03:46:50.058Z,0.00
2018-04-19T03:47:50.076Z,0.00
2018-04-19T03:48:50.096Z,4.00
2018-04-19T03:49:50.126Z,4.00
2018-04-19T03:50:50.147Z,4.00
2018-04-19T03:51:50.165Z,0.00
2018-04-19T03:52:50.182Z,4.00
2018-04-19T03:53:50.261Z,4.00
2018-04-19T03:54:50.231Z,4.00
2018-04-19T03:55:50.244Z,4.00
2018-04-19T03:56:50.269Z,8.00
2018-04-19T03:57:50.338Z,4.00
2018-04-19T03:58:50.314Z,8.00
2018-04-19T03:59:50.331Z,8.00
2018-04-19T04:00:50.350Z,12.00
2018-04-19T04:01:50.379Z,12.00
2018-04-19T04:02:50.399Z,16.00
2018-04-19T04:03:50.418Z,16.00
2018-04-19T04:04:50.437Z,20.00
2018-04-19T04:05:50.461Z,24.00
2018-04-19T04:06:50.476Z,28.00
2018-04-19T04:07:50.507Z,32.00
2018-04-19T04:08:50.609Z,36.00
2018-04-19T04:09:50.548Z,40.00
2018-04-19T04:10:50.560Z,48.00
2018-04-19T04:11:50.591Z,52.00
2018-04-19T04:12:50.602Z,60.00
2018-04-19T04:13:50.633Z,72.00
2018-04-19T04:14:50.648Z,80.00
2018-04-19T04:15:50.673Z,88.00
2018-04-19T04:16:50.690Z,100.00
2018-04-19T04:17:50.715Z,116.00
2018-04-19T04:18:50.738Z,128.00
2018-04-19T04:19:50.751Z,140.00
2018-04-19T04:20:50.774Z,160.00
2018-04-19T04:21:50.799Z,176.00
2018-04-19T04:22:50.819Z,192.00
2018-04-19T04:23:50.836Z,212.00
2018-04-19T04:24:50.857Z,236.00
2018-04-19T04:25:50.887Z,260.00
2018-04-19T04:26:50.906Z,280.00
2018-04-19T04:27:50.927Z,308.00
2018-04-19T04:28:50.945Z,336.00
2018-04-19T04:29:50.965Z,364.00
2018-04-19T04:30:50.983Z,396.00
2018-04-19T04:31:51.008Z,424.00
2018-04-19T04:32:51.029Z,460.00
2018-04-19T04:33:51.046Z,492.00
2018-04-19T04:34:51.065Z,528.00
2018-04-19T04:35:51.096Z,564.00
2018-04-19T04:36:51.109Z,600.00
2018-04-19T04:37:51.137Z,636.00
2018-04-19T04:38:51.152Z,676.00
2018-04-19T04:39:51.177Z,716.00
2018-04-19T04:40:51.196Z,752.00
2018-04-19T04:41:51.219Z,796.00
2018-04-19T04:42:51.237Z,836.00
2018-04-19T04:43:51.260Z,880.00
2018-04-19T04:44:51.287Z,920.00
2018-04-19T04:45:51.298Z,964.00
2018-04-19T04:46:51.318Z,1004.00
2018-04-19T04:47:51.393Z,1052.00
2018-04-19T04:48:51.361Z,1092.00
2018-04-19T04:49:51.384Z,1140.00
2018-04-19T04:50:51.411Z,1184.00
2018-04-19T04:51:51.423Z,1232.00
2018-04-19T04:52:51.453Z,1276.00
2018-04-19T04:53:51.465Z,1324.00
2018-04-19T04:54:51.492Z,1368.00
2018-04-19T04:55:51.511Z,1416.00
2018-04-19T04:56:51.534Z,1464.00
2018-04-19T04:57:51.551Z,1516.00
2018-04-19T04:58:51.577Z,1564.00
2018-04-19T04:59:51.595Z,1612.00
2018-04-19T05:00:51.617Z,1660.00
2018-04-19T05:01:51.641Z,1704.00
2018-04-19T05:02:51.662Z,1748.00
2018-04-19T05:03:51.680Z,1796.00
2018-04-19T05:04:51.703Z,1840.00
2018-04-19T05:05:51.718Z,1888.00
2018-04-19T05:06:51.738Z,1936.00
2018-04-19T05:07:51.769Z,1984.00
2018-04-19T05:08:51.779Z,2032.00
2018-04-19T05:09:51.809Z,2080.00
2018-04-19T05:10:51.824Z,2124.00
2018-04-19T05:11:51.847Z,2164.00
2018-04-19T05:12:51.866Z,2208.00
2018-04-19T05:13:51.890Z,2256.00
2018-04-19T05:14:51.909Z,2304.00
2018-04-19T05:15:51.932Z,2356.00
2018-04-19T05:16:51.950Z,2400.00
2018-04-19T05:17:51.968Z,2440.00
2018-04-19T05:18:51.988Z,2484.00
2018-04-19T05:19:52.012Z,2528.00
2018-04-19T05:20:52.031Z,2572.00
2018-04-19T05:21:52.061Z,2624.00
2018-04-19T05:22:52.085Z,2668.00
2018-04-19T05:23:52.100Z,2708.00
2018-04-19T05:24:52.123Z,2752.00
2018-04-19T05:25:52.136Z,2796.00
2018-04-19T05:26:52.156Z,2844.00
2018-04-19T05:27:52.186Z,2884.00
2018-04-19T05:28:52.205Z,2928.00
2018-04-19T05:29:52.227Z,2972.00
2018-04-19T05:30:52.331Z,3016.00
2018-04-19T05:31:52.267Z,3056.00
2018-04-19T05:32:52.292Z,3096.00
2018-04-19T05:33:52.308Z,3144.00
2018-04-19T05:34:52.346Z,3184.00
2018-04-19T05:35:52.352Z,3220.00
2018-04-19T05:36:52.370Z,3248.00
2018-04-19T05:37:52.415Z,3284.00
2018-04-19T05:38:52.409Z,3332.00
2018-04-19T05:39:52.441Z,3388.00
2018-04-19T05:40:52.452Z,3444.00
2018-04-19T05:41:52.513Z,3500.00
2018-04-19T05:42:52.495Z,3548.00
2018-04-19T05:43:52.519Z,3596.00
2018-04-19T05:44:52.538Z,3636.00
2018-04-19T05:45:52.597Z,3692.00
2018-04-19T05:46:52.579Z,3740.00
2018-04-19T05:47:52.604Z,3792.00
2018-04-19T05:48:52.628Z,3840.00
2018-04-19T05:49:52.641Z,3884.00
2018-04-19T05:50:52.661Z,3928.00
2018-04-19T05:51:52.685Z,3972.00
2018-04-19T05:52:52.705Z,4020.00
2018-04-19T05:53:52.732Z,4060.00
2018-04-19T05:54:52.749Z,4104.00
2018-04-19T05:55:52.772Z,4152.00
2018-04-19T05:56:52.789Z,4196.00
2018-04-19T05:57:52.814Z,4244.00
2018-04-19T05:58:52.834Z,4296.00
2018-04-19T05:59:52.859Z,4340.00
2018-04-19T06:00:52.872Z,4388.00
2018-04-19T06:01:52.902Z,4428.00
2018-04-19T06:02:52.920Z,4476.00
2018-04-19T06:03:52.938Z,4528.00
2018-04-19T06:04:52.962Z,4568.00
2018-04-19T06:05:52.987Z,4620.00
2018-04-19T06:06:53.008Z,4676.00
2018-04-19T06:07:53.029Z,4724.00
2018-04-19T06:08:53.050Z,4772.00
2018-04-19T06:09:53.066Z,4816.00
2018-04-19T06:10:53.089Z,4864.00
2018-04-19T06:11:53.113Z,4900.00
2018-04-19T06:12:53.127Z,4952.00
2018-04-19T06:13:53.157Z,5016.00
2018-04-19T06:14:53.178Z,5080.00
2018-04-19T06:15:53.192Z,5120.00
2018-04-19T06:16:53.216Z,5168.00
2018-04-19T06:17:53.243Z,5228.00
2018-04-19T06:18:53.258Z,5280.00
2018-04-19T06:19:53.284Z,5336.00
2018-04-19T06:20:53.301Z,5396.00
2018-04-19T06:21:53.319Z,5444.00
2018-04-19T06:22:53.343Z,5504.00
2018-04-19T06:23:53.372Z,5604.00
2018-04-19T06:24:53.430Z,8140.00
2018-04-19T06:25:53.413Z,12552.00
2018-04-19T06:26:53.434Z,14444.00
2018-04-19T06:27:53.448Z,14924.00
2018-04-19T06:28:53.472Z,18208.00
2018-04-19T06:29:53.502Z,29664.00
2018-04-19T06:30:53.522Z,40928.00
2018-04-19T06:31:53.537Z,43584.00
2018-04-19T06:32:53.951Z,43680.00
2018-04-19T06:33:53.737Z,46176.00
2018-04-19T06:34:53.605Z,46240.00
2018-04-19T06:35:53.641Z,47360.00
2018-04-19T06:36:53.644Z,49696.00
2018-04-19T06:37:53.676Z,50176.00
2018-04-19T06:38:53.698Z,49440.00
2018-04-19T06:39:53.713Z,48960.00
2018-04-19T06:40:53.742Z,50848.00
2018-04-19T06:41:53.764Z,53408.00
2018-04-19T06:42:53.781Z,53600.00
2018-04-19T06:43:53.814Z,53632.00
2018-04-19T06:44:53.830Z,55584.00
2018-04-19T06:45:53.860Z,57216.00
2018-04-19T06:46:53.880Z,56960.00
2018-04-19T06:47:53.905Z,57088.00
2018-04-19T06:48:53.928Z,58112.00
2018-04-19T06:49:53.955Z,56384.00
2018-04-19T06:50:53.975Z,56960.00
2018-04-19T06:51:54.003Z,59200.00
2018-04-19T06:52:54.028Z,58432.00
2018-04-19T06:53:54.052Z,61248.00
2018-04-19T06:54:54.079Z,60576.00
2018-04-19T06:55:54.106Z,59872.00
2018-04-19T06:56:54.123Z,59456.00
2018-04-19T06:57:54.157Z,58816.00
2018-04-19T06:58:54.181Z,60416.00
2018-04-19T06:59:54.201Z,61088.00
2018-04-19T07:00:54.234Z,62944.00
2018-04-19T07:01:54.252Z,62304.00
2018-04-19T07:02:54.278Z,63392.00
2018-04-19T07:03:54.315Z,64992.00
2018-04-19T07:04:54.331Z,66496.00
2018-04-19T07:05:54.367Z,64384.00
2018-04-19T07:06:54.392Z,64320.00
2018-04-19T07:07:54.416Z,64768.00
2018-04-19T07:08:54.445Z,65056.00
2018-04-19T07:09:54.479Z,67456.00
2018-04-19T07:10:54.496Z,68608.00
2018-04-19T07:11:54.529Z,66752.00
2018-04-19T07:12:54.558Z,67424.00
2018-04-19T07:13:54.585Z,69088.00
2018-04-19T07:14:54.606Z,68800.00
2018-04-19T07:15:54.643Z,67456.00
2018-04-19T07:16:54.669Z,67072.00
2018-04-19T07:17:54.694Z,66560.00
2018-04-19T07:18:54.729Z,68288.00
2018-04-19T07:19:54.750Z,68992.00
2018-04-19T07:20:54.789Z,66912.00
2018-04-19T07:21:54.814Z,68768.00
2018-04-19T07:22:54.837Z,70720.00
2018-04-19T07:23:54.873Z,71104.00
2018-04-19T07:24:54.902Z,72064.00
2018-04-19T07:25:54.927Z,73472.00
2018-04-19T07:26:54.955Z,72768.00
2018-04-19T07:27:54.981Z,71520.00
2018-04-19T07:28:55.009Z,72288.00
2018-04-19T07:29:55.048Z,71616.00
2018-04-19T07:30:55.070Z,72096.00
2018-04-19T07:31:55.103Z,74752.00
2018-04-19T07:32:55.136Z,75360.00
2018-04-19T07:33:55.158Z,74816.00
2018-04-19T07:34:55.186Z,74976.00
2018-04-19T07:35:55.227Z,74656.00
2018-04-19T07:36:55.253Z,73728.00
2018-04-19T07:37:55.281Z,75264.00
2018-04-19T07:38:55.313Z,75040.00
2018-04-19T07:39:55.341Z,73536.00
2018-04-19T07:40:55.368Z,74336.00
2018-04-19T07:41:55.411Z,74944.00
2018-04-19T07:42:55.436Z,77792.00
2018-04-19T07:43:55.463Z,77152.00
2018-04-19T07:44:55.497Z,75712.00
2018-04-19T07:45:55.527Z,74880.00
2018-04-19T07:46:55.556Z,77600.00
2018-04-19T07:47:55.585Z,76768.00
2018-04-19T07:48:55.617Z,77408.00
2018-04-19T07:49:55.655Z,77152.00
2018-04-19T07:50:55.687Z,76128.00
2018-04-19T07:51:55.705Z,75808.00
2018-04-19T07:52:55.740Z,74112.00
2018-04-19T07:53:55.793Z,74560.00
2018-04-19T07:54:55.801Z,76352.00
2018-04-19T07:55:55.836Z,77856.00
2018-04-19T07:56:55.864Z,78688.00
2018-04-19T07:57:55.903Z,80128.00
2018-04-19T07:58:55.924Z,78816.00
2018-04-19T07:59:55.963Z,77184.00
2018-04-19T08:00:55.988Z,76032.00
2018-04-19T08:01:56.027Z,77920.00
2018-04-19T08:02:56.052Z,79136.00
2018-04-19T08:03:56.086Z,78720.00
2018-04-19T08:04:56.117Z,79200.00
2018-04-19T08:05:56.151Z,77952.00
2018-04-19T08:06:56.181Z,77248.00
2018-04-19T08:07:56.248Z,77280.00
2018-04-19T08:08:56.247Z,77440.00
2018-04-19T08:09:56.275Z,77696.00
2018-04-19T08:10:56.312Z,78592.00
2018-04-19T08:11:56.338Z,78528.00
2018-04-19T08:12:56.375Z,78848.00
2018-04-19T08:13:56.411Z,78464.00
2018-04-19T08:14:56.435Z,80832.00
2018-04-19T08:15:56.470Z,80960.00
2018-04-19T08:16:56.500Z,77632.00
2018-04-19T08:17:56.535Z,76800.00
2018-04-19T08:18:56.583Z,78720.00
2018-04-19T08:19:56.602Z,80416.00
2018-04-19T08:20:56.633Z,79584.00
2018-04-19T08:21:56.661Z,77280.00
2018-04-19T08:22:56.698Z,75456.00
2018-04-19T08:23:56.722Z,76160.00
2018-04-19T08:24:56.761Z,79712.00
2018-04-19T08:25:56.793Z,79936.00
2018-04-19T08:26:56.823Z,75008.00
2018-04-19T08:27:56.869Z,73536.00
2018-04-19T08:28:56.901Z,76384.00
2018-04-19T08:29:56.922Z,74976.00
2018-04-19T08:30:56.956Z,76032.00
2018-04-19T08:31:56.986Z,77280.00
2018-04-19T08:32:57.017Z,77216.00
2018-04-19T08:33:57.143Z,76384.00
2018-04-19T08:34:57.087Z,75616.00
2018-04-19T08:35:57.121Z,77152.00
2018-04-19T08:36:57.146Z,78432.00
2018-04-19T08:37:57.190Z,79104.00
2018-04-19T08:38:57.213Z,78976.00
2018-04-19T08:39:57.252Z,81568.00
2018-04-19T08:40:57.285Z,83584.00
2018-04-19T08:41:57.316Z,82688.00
2018-04-19T08:42:57.347Z,83264.00
2018-04-19T08:43:57.382Z,83200.00
2018-04-19T08:44:57.411Z,81568.00
2018-04-19T08:45:57.449Z,81600.00
2018-04-19T08:46:57.475Z,83232.00
2018-04-19T08:47:57.516Z,83712.00
2018-04-19T08:48:57.543Z,83008.00
2018-04-19T08:49:57.589Z,82336.00
2018-04-19T08:50:57.611Z,82528.00
2018-04-19T08:51:57.642Z,82976.00
2018-04-19T08:52:57.685Z,82496.00
2018-04-19T08:53:57.709Z,81856.00
2018-04-19T08:54:57.747Z,81152.00
2018-04-19T08:55:57.779Z,81440.00
2018-04-19T08:56:57.811Z,81888.00
2018-04-19T08:57:57.846Z,84352.00
2018-04-19T08:58:57.881Z,85760.00
2018-04-19T08:59:57.912Z,85216.00
2018-04-19T09:00:57.944Z,83648.00
2018-04-19T09:01:57.986Z,84416.00
2018-04-19T09:02:58.019Z,85248.00
2018-04-19T09:03:58.046Z,86560.00
2018-04-19T09:04:58.083Z,88096.00
2018-04-19T09:05:58.120Z,86080.00
2018-04-19T09:06:58.153Z,85472.00
2018-04-19T09:07:58.231Z,87360.00
2018-04-19T09:08:58.215Z,87008.00
2018-04-19T09:09:58.253Z,86752.00
2018-04-19T09:10:58.286Z,86944.00
2018-04-19T09:11:58.323Z,86752.00
2018-04-19T09:12:58.360Z,87968.00
2018-04-19T09:13:58.391Z,89120.00
2018-04-19T09:14:58.421Z,89824.00
2018-04-19T09:15:58.460Z,89952.00
2018-04-19T09:16:58.500Z,88960.00
2018-04-19T09:17:58.523Z,89632.00
2018-04-19T09:18:58.557Z,91648.00
2018-04-19T09:19:58.600Z,91264.00
2018-04-19T09:20:58.633Z,90048.00
2018-04-19T09:21:58.664Z,90464.00
2018-04-19T09:22:58.713Z,88352.00
2018-04-19T09:23:58.735Z,89216.00
2018-04-19T09:24:58.766Z,90912.00
2018-04-19T09:25:58.798Z,90240.00
2018-04-19T09:26:58.835Z,90400.00
2018-04-19T09:27:58.869Z,92064.00
2018-04-19T09:28:58.903Z,92672.00
2018-04-19T09:29:58.944Z,91776.00
2018-04-19T09:30:58.970Z,91296.00
2018-04-19T09:31:59.012Z,90976.00
2018-04-19T09:32:59.047Z,92000.00
2018-04-19T09:33:59.081Z,91104.00
2018-04-19T09:34:59.109Z,90112.00
2018-04-19T09:35:59.148Z,91040.00
2018-04-19T09:36:59.180Z,92384.00
2018-04-19T09:37:59.217Z,91808.00
2018-04-19T09:38:59.251Z,90432.00
2018-04-19T09:39:59.288Z,90304.00
2018-04-19T09:40:59.368Z,89216.00
2018-04-19T09:41:59.358Z,89920.00
2018-04-19T09:42:59.387Z,91808.00
2018-04-19T09:43:59.424Z,91264.00
2018-04-19T09:44:59.462Z,92192.00
2018-04-19T09:45:59.495Z,92640.00
2018-04-19T09:46:59.530Z,90016.00
2018-04-19T09:47:59.557Z,90464.00
2018-04-19T09:48:59.599Z,92256.00
2018-04-19T09:49:59.628Z,91808.00
2018-04-19T09:50:59.666Z,88000.00
2018-04-19T09:51:59.703Z,85568.00
2018-04-19T09:52:59.735Z,89728.00
2018-04-19T09:53:59.891Z,92384.00
2018-04-19T09:54:59.807Z,91520.00
2018-04-19T09:55:59.832Z,91872.00
2018-04-19T09:56:59.874Z,92288.00
2018-04-19T09:57:59.901Z,90784.00
2018-04-19T09:58:59.941Z,87520.00
2018-04-19T09:59:59.972Z,83680.00
2018-04-19T10:01:00.011Z,81760.00
2018-04-19T10:02:00.058Z,85664.00
2018-04-19T10:03:00.078Z,88352.00
2018-04-19T10:04:00.125Z,87648.00
2018-04-19T10:05:00.147Z,86144.00
2018-04-19T10:06:00.186Z,87232.00
2018-04-19T10:07:00.215Z,90080.00
2018-04-19T10:08:00.254Z,90688.00
2018-04-19T10:09:00.284Z,90240.00
2018-04-19T10:10:00.349Z,88352.00
2018-04-19T10:11:00.357Z,87776.00
2018-04-19T10:12:00.392Z,88480.00
2018-04-19T10:13:00.426Z,89088.00
2018-04-19T10:14:00.457Z,90208.00
2018-04-19T10:15:00.491Z,88736.00
2018-04-19T10:16:00.586Z,86464.00
2018-04-19T10:17:00.562Z,86656.00
2018-04-19T10:18:00.593Z,85056.00
2018-04-19T10:19:00.635Z,83040.00
2018-04-19T10:20:00.662Z,83584.00
2018-04-19T10:21:00.704Z,84128.00
2018-04-19T10:22:00.740Z,86432.00
2018-04-19T10:23:00.775Z,87072.00
2018-04-19T10:24:00.803Z,87904.00
2018-04-19T10:25:00.836Z,87872.00
2018-04-19T10:26:00.879Z,87296.00
2018-04-19T10:27:00.907Z,88288.00
2018-04-19T10:28:00.940Z,87104.00
2018-04-19T10:29:00.982Z,85632.00
2018-04-19T10:30:01.012Z,87040.00
2018-04-19T10:31:01.102Z,87840.00
2018-04-19T10:32:01.079Z,87392.00
2018-04-19T10:33:01.112Z,87968.00
2018-04-19T10:34:01.148Z,88800.00
2018-04-19T10:35:01.185Z,88448.00
2018-04-19T10:36:01.224Z,88160.00
2018-04-19T10:37:01.250Z,84832.00
2018-04-19T10:38:01.297Z,86592.00
2018-04-19T10:39:01.321Z,89312.00
2018-04-19T10:40:01.363Z,89440.00
2018-04-19T10:41:01.390Z,88064.00
2018-04-19T10:42:01.428Z,87296.00
2018-04-19T10:43:01.461Z,84640.00
2018-04-19T10:44:01.498Z,84480.00
2018-04-19T10:45:01.524Z,84928.00
2018-04-19T10:46:01.569Z,84448.00
2018-04-19T10:47:01.616Z,83136.00
2018-04-19T10:48:01.635Z,82432.00
2018-04-19T10:49:01.666Z,87040.00
2018-04-19T10:50:01.710Z,88160.00
2018-04-19T10:51:01.735Z,83648.00
2018-04-19T10:52:01.784Z,78080.00
2018-04-19T10:53:01.804Z,74848.00
2018-04-19T10:54:01.843Z,74240.00
2018-04-19T10:55:01.879Z,75040.00
2018-04-19T10:56:01.906Z,79872.00
2018-04-19T10:57:01.946Z,82752.00
2018-04-19T10:58:01.976Z,91840.00
2018-04-19T10:59:02.010Z,93120.00
2018-04-19T11:00:02.042Z,88640.00
2018-04-19T11:01:02.192Z,78304.00
2018-04-19T11:02:02.116Z,72832.00
2018-04-19T11:03:02.153Z,66816.00
2018-04-19T11:04:02.181Z,69376.00
2018-04-19T11:05:02.214Z,76992.00
2018-04-19T11:06:02.257Z,81696.00
2018-04-19T11:07:02.283Z,84736.00
2018-04-19T11:08:02.325Z,85120.00
2018-04-19T11:09:02.360Z,83040.00
2018-04-19T11:10:02.391Z,82368.00
2018-04-19T11:11:02.429Z,83008.00
2018-04-19T11:12:02.455Z,83168.00
2018-04-19T11:13:02.491Z,81632.00
2018-04-19T11:14:02.530Z,84064.00
2018-04-19T11:15:02.566Z,84320.00
2018-04-19T11:16:02.634Z,84096.00
2018-04-19T11:17:02.626Z,82624.00
2018-04-19T11:18:02.674Z,81568.00
2018-04-19T11:19:02.702Z,81216.00
2018-04-19T11:20:02.728Z,81216.00
2018-04-19T11:21:02.767Z,83584.00
2018-04-19T11:22:02.804Z,83520.00
2018-04-19T11:23:02.835Z,80928.00
2018-04-19T11:24:02.873Z,78496.00
2018-04-19T11:25:02.911Z,77728.00
2018-04-19T11:26:02.936Z,77408.00
2018-04-19T11:27:02.970Z,75264.00
2018-04-19T11:28:03.014Z,78944.00
2018-04-19T11:29:03.045Z,78304.00
2018-04-19T11:30:03.080Z,79168.00
2018-04-19T11:31:03.163Z,76064.00
2018-04-19T11:32:03.148Z,74528.00
2018-04-19T11:33:03.181Z,76992.00
2018-04-19T11:34:03.222Z,72704.00
2018-04-19T11:35:03.245Z,72704.00
2018-04-19T11:36:03.290Z,67872.00
2018-04-19T11:37:03.319Z,61216.00
2018-04-19T11:38:03.358Z,58496.00
2018-04-19T11:39:03.390Z,64128.00
2018-04-19T11:40:03.421Z,68000.00
2018-04-19T11:41:03.454Z,64928.00
2018-04-19T11:42:03.498Z,62368.00
2018-04-19T11:43:03.530Z,65440.00
2018-04-19T11:44:03.557Z,68480.00
2018-04-19T11:45:03.596Z,67168.00
2018-04-19T11:46:03.633Z,66592.00
2018-04-19T11:47:03.666Z,62368.00
2018-04-19T11:48:03.718Z,61024.00
2018-04-19T11:49:03.730Z,62144.00
2018-04-19T11:50:03.780Z,65856.00
2018-04-19T11:51:03.805Z,65568.00
2018-04-19T11:52:03.840Z,68256.00
2018-04-19T11:53:03.871Z,67744.00
2018-04-19T11:54:03.909Z,68352.00
2018-04-19T11:55:03.946Z,68736.00
2018-04-19T11:56:03.973Z,69536.00
2018-04-19T11:57:04.015Z,70528.00
2018-04-19T11:58:04.042Z,70592.00
2018-04-19T11:59:04.079Z,71296.00
2018-04-19T12:00:04.119Z,70944.00
2018-04-19T12:01:04.170Z,70848.00
2018-04-19T12:02:04.187Z,70688.00
2018-04-19T12:03:04.216Z,70848.00
2018-04-19T12:04:04.248Z,69632.00
2018-04-19T12:05:04.286Z,70048.00
2018-04-19T12:06:04.324Z,70944.00
2018-04-19T12:07:04.357Z,71712.00
2018-04-19T12:08:04.389Z,70528.00
2018-04-19T12:09:04.421Z,65312.00
2018-04-19T12:10:04.465Z,64576.00
2018-04-19T12:11:04.489Z,65152.00
2018-04-19T12:12:04.533Z,71584.00
2018-04-19T12:13:04.564Z,78720.00
2018-04-19T12:14:04.597Z,79680.00
2018-04-19T12:15:04.636Z,126560.00
2018-04-19T12:16:04.664Z,125184.00
2018-04-19T12:17:04.705Z,59200.00
2018-04-19T12:18:04.741Z,23680.00
2018-04-19T12:19:04.778Z,22944.00
2018-04-19T12:20:04.801Z,22912.00
2018-04-19T12:21:04.835Z,23072.00
2018-04-19T12:22:04.880Z,22464.00